Hoboken, New Jersey
Current Conditions -  °F | °C
As of 8:51 AM on Monday 20 Oct 2014 (Local Time) from KNYC Reporting Station
Clear Clear  
Wind Chill: 44°   Ceiling: Unl
Heat Index: 47°   Visibility: 10mi
Dew Point: 29°   Wind: 6mph
Humidity: 50%   Direction: NA
Pressure: 30.15"   Gusts: NA
Location:  40.74°N, 74.03°W
Report Text: KNYC 201251Z AUTO VRB05KT 10SM CLR 08/M02 A3015 RMK AO2 SLP201 T00831017 $
Loading
Personal Weather Stations






























Interactive Weather Map
Tropical Storm Tracking
New forecast layout! Learn more

10-Day Weather Forecast

Advertisements
Track Severe Weather on mobile